x

Cape Elizabeth- 45nm Nw Of Aberdeen, Wa (46041) Wave Buoy

2:50am - Mon 27th Mar 2017 All times are PDT. -7 hours from GMT.

  • Sig Wave height 8.9ft
  • Swell Direction
  • Peak Period 10s
  • Average Period 7s
  • Wind
    18mph, 22mph gusts
  • Sea Temp 50°f
  • 空気 Temp 49°f
  • Sea Pressure 1009.9mb
  • Cape Elizabeth- 45nm Nw Of Aberdeen, Wa
  • Cape Elizabeth- 45nm Nw Of Aberdeen, Wa

More Historic Weather Station data

Upgrade to MSW Pro to gain access to the past 30 days of data for over 8000 Wavebouys and Weather Stations around the globe.

Join Pro

Comparision Forecast

View Surf forecast
   
Mon 03/27 2:50am 9ft 10s 7s 18 22 mph 1009.9mb 50f 49f
1:50am 8ft 9s 7s 16 20 mph 1009.7mb 50f 46f
12:50am 8ft 11s 7s 18 20 mph 1009.1mb 50f 49f
Sun 03/26 11:50pm 8ft 9s 7s 16 20 mph 1008.9mb 50f 49f
10:50pm 8ft 9s 7s 18 22 mph 1008.5mb 50f 49f
9:50pm 7.5ft 9s 7s 16 20 mph 1007.8mb 50f 49f
8:50pm 8ft 9s 7s 16 18 mph 1007.5mb 50f 48f
7:50pm 7.5ft 10s 7s 13 18 mph 1007.4mb 50f 49f
6:50pm 9ft 10s 7s 13 16 mph 1006.9mb 50f 49f
5:50pm 9ft 9s 7s 9 11 mph 1006.3mb 50f 49f
4:50pm 10.5ft 10s 7s 7 9 mph 1005.7mb 50f 48f
3:50pm 10ft 10s 7s 25 29 mph 1004.7mb 50f 46f
2:50pm 11ft 8s 6s 27 36 mph 1003.9mb 50f 45f
1:50pm 10.5ft 8s 6s 27 31 mph 1004.1mb 50f 45f
12:50pm 9ft 8s 6s 27 34 mph 1004.2mb 50f 46f
11:50am 10ft 8s 6s 29 36 mph 1004.5mb 49f 46f
10:50am 10ft 6s 6s 31 38 mph 1004.7mb 49f 45f
9:50am 9ft 5s 6s 31 38 mph 1005mb 49f 45f
8:50am 8ft 5s 6s 31 38 mph 1005.4mb 49f 45f
7:50am 8ft 12s 6s 29 36 mph 1006.2mb 49f 45f
6:50am 8ft 13s 6s 29 36 mph 1007.1mb 50f 45f
5:50am 8ft 10s 6s 27 34 mph 1008.1mb 50f 45f
4:50am 8ft 13s 6s 25 29 mph 1009.1mb 50f 45f
3:50am 8ft 13s 7s 25 31 mph 1010.3mb 50f 46f
2:50am 8ft 10s 6s 25 29 mph 1011.5mb 50f 46f
1:50am 9ft 13s 7s 25 31 mph 1012.3mb 50f 46f
12:50am 8ft 13s 7s 22 27 mph 1013.3mb 50f 47f
Sat 03/25 11:50pm 8ft 13s 7s 20 25 mph 1014.1mb 49f 47f
10:50pm 10ft 13s 8s 18 22 mph 1015mb 50f 47f
9:50pm 9.5ft 10s 9s 16 22 mph 1015.4mb 50f 47f
8:50pm 10ft 9s 9s 13 18 mph 1016.4mb 50f 46f
7:50pm 9.5ft 9s 9s 11 13 mph 1017.2mb 50f 46f
6:50pm 10.5ft 14s 9s 9 13 mph 1018.1mb 50f 46f
5:50pm 9ft 14s 9s 9 11 mph 1018.6mb 50f 46f
4:50pm 9.5ft 14s 9s 9 11 mph 1019.5mb 50f 46f
3:50pm 8.5ft 14s 8s 13 20 mph 1019.9mb 50f 45f
2:50pm 9ft 10s 8s 9 11 mph 1020mb 50f 47f
1:50pm 9.5ft 14s 8s 7 9 mph 1020mb 50f 46f
12:50pm 10.5ft 10s 8s 11 13 mph 1019.8mb 50f 46f
11:50am 10.5ft 10s 8s 2 4 mph 1019.9mb 49f 46f
10:50am 12ft 10s 8s 9 11 mph 1019.7mb 49f 44f
9:50am 11ft 10s 8s 7 11 mph 1019.3mb 49f 46f
8:50am 11ft 10s 8s 9 13 mph 1019mb 49f 46f
7:50am 10ft 10s 8s 9 11 mph 1018.4mb 49f 46f
6:50am 9.5ft 10s 7s 9 13 mph 1018.4mb 49f 46f
5:50am 10ft 9s 8s 13 16 mph 1018.1mb 49f 46f
4:50am 9.5ft 9s 8s 13 16 mph 1017.6mb 49f 46f
3:50am 9.5ft 10s 7s 13 20 mph 1017.3mb 50f 47f
2:50am 9.5ft 11s 7s 13 18 mph 1017.1mb 50f 47f
1:50am 10.5ft 11s 8s 16 20 mph 1016.5mb 50f 47f
12:50am 10ft 11s 8s 18 20 mph 1015.8mb 50f 47f
Fri 03/24 11:50pm 9.5ft 11s 7s 18 22 mph 1014.8mb 50f 47f
10:50pm 10ft 11s 7s 18 25 mph 1014.2mb 50f 47f
9:50pm 9ft 11s 7s 20 25 mph 1013.5mb 50f 47f
8:50pm 10.5ft 11s 7s 20 29 mph 1012.7mb 50f 47f
7:50pm 10ft 12s 7s 25 29 mph 1011.9mb 50f 49f
6:50pm 12ft 11s 8s 20 25 mph 1011.3mb 50f 49f
5:50pm 11.5ft 11s 8s 20 27 mph 1010.7mb 50f 49f
4:50pm 11ft 11s 7s 22 27 mph 1010.2mb 50f 49f
3:50pm 12.5ft 11s 8s 20 27 mph 1009.4mb 50f 49f
2:50pm 13ft 11s 8s 20 25 mph 1008.9mb 50f 49f
1:50pm 13ft 11s 8s 16 20 mph 1008.4mb 50f 49f
12:50pm 13ft 11s 8s 18 22 mph 1008mb 50f 49f
11:50am 13.5ft 11s 8s 20 25 mph 1007.2mb 50f 50f
10:50am 14ft 11s 8s 22 29 mph 1006.8mb 50f 50f
9:50am 15ft 11s 9s 20 27 mph 1006.1mb 50f 50f
8:50am 13ft 12s 9s 20 25 mph 1005.9mb 50f 49f
7:50am 13.5ft 12s 9s 16 22 mph 1006mb 50f 49f
6:50am 14ft 11s 9s 16 20 mph 1006.2mb 50f 49f
5:50am 15.5ft 11s 9s 13 18 mph 1006.1mb 50f 49f
4:50am 15ft 12s 9s 13 18 mph 1005.9mb 50f 49f
3:50am 15.5ft 12s 8s 16 20 mph 1006.2mb 50f 49f
2:50am 18ft 11s 9s 18 25 mph 1006.5mb 50f 49f
1:50am 16.5ft 11s 8s 20 25 mph 1006.4mb 50f 50f
12:50am 17ft 11s 8s 29 34 mph 1006.4mb 50f 47f
Thu 03/23 11:50pm 18.5ft 11s 8s 31 40 mph 1006.1mb 50f 47f
10:50pm 14.5ft 10s 7s 31 38 mph 1006.1mb 50f 47f
9:50pm 13.5ft 8s 7s 31 38 mph 1006.9mb 50f 47f
8:50pm 12ft 8s 7s 34 40 mph 1007.6mb 50f 47f
7:50pm 11.5ft 8s 7s 31 43 mph 1008.1mb 50f 47f
6:50pm 11ft 8s 6s 31 36 mph 1008.9mb 50f 47f
5:50pm 10ft 8s 6s 36 43 mph 1009.8mb 50f 47f
4:50pm 8.5ft 7s 6s 31 38 mph 1011mb 50f 47f
3:50pm 9ft 8s 6s 27 36 mph 1011.4mb 50f 49f
2:50pm 7.5ft 7s 5s 29 36 mph 1011.9mb 50f 49f
1:50pm 7.5ft 6s 6s 29 34 mph 1012.8mb 50f 48f
12:50pm 7ft 6s 5s 27 34 mph 1013.4mb 50f 48f
11:50am 7.5ft 8s 5s 27 36 mph 1014.1mb 50f 47f
10:50am 7.5ft 7s 6s 27 34 mph 1014.5mb 50f 47f